Aérodrome :
LOGIN :

S'inscrire | Disclaimer

   EN    FR    IT 

 










Légende :    VFR   VFR Marginal   IFR   IFR Intensif   IFR Très Intensif
Visi : 
Plafond : 
>= 8 km
>= 3000ft
5 à 8 km
1000 à 3000 ft
1500m à 5 km
500 à 1000 ft
800 à 1500m
200 à 500 ft
< 800m
< 200 ft
Symboles :   Orages  Brouillard  Fortes neiges  Fortes précipitations  Vent > 20 kt
SIGMETs :   Divers  Orages  Givrage  Turbulence  Onde Orograph.  Cendres Volcan.







- Altitude de l'aérodrome : 2425 ft


ETHA - Altenstadt Army

DERNIER METAR :
  • 261720Z 06002KT 3000 -SNSG BR BKN004 01/00 Q1010 RESN BLACKYLO FCST CANCEL

METARs EXPIRÉS :
  • 261635Z 11001KT 2000 SN BR BKN006 01/00 Q1010 BLACKYLO WHT TEMPO YLO
  • 261620Z VRB01KT 5000 -SN BKN006 01/00 Q1010 RESN BLACKYLO WHT TEMPO YLO
  • 261548Z 03002KT 2000 SN BR BKN006 01/00 Q1010 BLACKYLO WHT TEMPO YLO
  • 261520Z 02002KT 6000 -SNSG BKN006 01/00 Q1010 RESN BLACKYLO WHT TEMPO YLO
  • 261448Z 36004KT 3000 SN BR BKN006 01/00 Q1010 BLACKYLO WHT TEMPO YLO
  • 261420Z 05004KT 6000 -SN BKN006 BKN015 01/00 Q1009 RESN BLACKYLO YLO TEMPO AMB

TAF AMD TAF ETHA
Valide du 26 à 14h jusqu'au 26 à 23h UTC


261430Z 2614/2623 36005KT 8000 -SNRA SCT007 OVC015
TEMPO 2614/2618 03003KT 3000 SNRA BKN005 OVC010
BECMG 2617/2619 32003KT 3000 -SN BKN005 OVC010
TEMPO 2619/2623 30005KT 1000 SN VV002 OVC007
Pas de NOTAMs connus pour ce terrain.



MET'MAP, la Météo Aéronautique d'un coup d'oeil ! - Copyright ORBIFLY Décembre 2007 - Disclaimer

ORBIFLY MET'MAP TEAM :

Programmation & Développement : Alexandra Zaïnal
Conception & Développement : Baudouin d'Aumeries
Co-Programmation & Développement : Marc-Olivier Méhu
Soutien technique & logistique : Manuel Goepfert

Contact : metmap@orbifly.com




SOURCES & CREDITS :

   NOAA